Centerville, Minnesota
Current Conditions -  °F | °C
As of 12:14 AM on Thursday 29 Jan 2015 (Local Time) from KANE Reporting Station
Haze Haze  
Wind Chill: 25°   Ceiling: 600
Heat Index: 32°   Visibility: 2.5mi
Dew Point: 32°   Wind: 8mph
Humidity: 100%   Direction: 300°WNW
Pressure: 29.87"   Gusts: NA
Location:  45.1696°N, 92.9662°W
Report Text: KANE 290614Z AUTO 30007KT 2 1/2SM BR OVC006 00/00 A2987 RMK AO2
Loading
Personal Weather Stations






























Interactive Weather Map New forecast layout! Learn more

10-Day Weather Forecast

Advertisements
Track Severe Weather on mobile